Time;durP1;ratioP1;P1;durP2;ratioP2;P2;SDS_P1;SDS_P2;PMS_P1;PMS_P2;Temp;Humidity;BMP_temperature;BMP_pressure;BME280_temperature;BME280_humidity;BME280_pressure;Samples;Min_cycle;Max_cycle;Signal;HPM_P1;HPM_P2
2023/05/04 00:02:01;;;;;;;21.30;13.88;;;;;;;-146.07;100.00;70291.31;10420806;28;20029;-72
2023/05/04 00:07:01;;;;;;;28.00;15.43;;;;;;;-146.07;100.00;70291.31;10420591;28;20112;-73
2023/05/04 00:12:02;;;;;;;23.77;16.77;;;;;;;-146.07;100.00;70291.31;10420579;28;20419;-73
2023/05/04 00:17:05;;;;;;;26.85;16.98;;;;;;;-146.07;100.00;70291.31;10401974;28;20024;-73
2023/05/04 00:22:05;;;;;;;27.23;16.83;;;;;;;-146.07;100.00;70291.31;10402529;28;20025;-73
2023/05/04 00:27:06;;;;;;;25.55;16.13;;;;;;;-146.07;100.00;70291.31;10419671;28;20025;-73
2023/05/04 00:32:06;;;;;;;26.75;16.85;;;;;;;-146.07;100.00;70291.31;10419611;28;20492;-73
2023/05/04 00:37:07;;;;;;;28.80;18.00;;;;;;;-146.07;100.00;70291.31;10419873;28;20159;-73
2023/05/04 00:42:07;;;;;;;30.45;17.42;;;;;;;-146.07;100.00;70291.31;10409560;28;20594;-72
2023/05/04 00:47:08;;;;;;;28.27;18.20;;;;;;;-146.07;100.00;70291.31;10399251;28;20020;-73
2023/05/04 00:52:09;;;;;;;28.88;17.17;;;;;;;-146.07;100.00;70291.31;10419359;28;20025;-74
2023/05/04 00:57:10;;;;;;;29.25;17.65;;;;;;;-146.07;100.00;70291.31;10401076;28;20025;-72
2023/05/04 01:02:10;;;;;;;34.42;17.35;;;;;;;-146.07;100.00;70291.31;10418570;28;20024;-72
2023/05/04 01:07:35;;;;;;;31.70;18.63;;;;;;;-146.07;100.00;70291.31;10418207;28;20025;-72
2023/05/04 01:12:59;;;;;;;30.48;19.15;;;;;;;-146.07;100.00;70291.31;10404009;28;20064;-73
2023/05/04 01:18:00;;;;;;;29.20;18.23;;;;;;;-146.07;100.00;70291.31;10417949;28;20507;-73
2023/05/04 01:23:01;;;;;;;34.60;17.40;;;;;;;-146.07;100.00;70291.31;10418210;28;20033;-72
2023/05/04 01:28:42;;;;;;;25.45;17.27;;;;;;;-146.07;100.00;70291.31;10417050;28;20506;-72
2023/05/04 01:33:44;;;;;;;30.10;18.30;;;;;;;-146.07;100.00;70291.31;10417070;28;20083;-72
2023/05/04 01:38:47;;;;;;;33.20;19.15;;;;;;;-146.07;100.00;70291.31;10410137;28;20056;-72
2023/05/04 01:43:48;;;;;;;32.35;19.92;;;;;;;-146.07;100.00;70291.31;10407972;28;20065;-72
2023/05/04 01:48:48;;;;;;;33.70;18.70;;;;;;;-146.07;100.00;70291.31;10416615;28;20123;-72
2023/05/04 01:53:49;;;;;;;33.17;19.20;;;;;;;-146.07;100.00;70291.31;10416768;28;20021;-75
2023/05/04 01:58:49;;;;;;;29.55;16.33;;;;;;;-146.07;100.00;70291.31;10416006;28;20451;-73
2023/05/04 02:03:50;;;;;;;27.00;14.70;;;;;;;-146.07;100.00;70291.31;10401959;28;20033;-73
2023/05/04 02:08:50;;;;;;;23.33;13.47;;;;;;;-146.07;100.00;70291.31;10372767;28;20492;-72
2023/05/04 02:13:50;;;;;;;23.00;12.70;;;;;;;-146.07;100.00;70291.31;10369956;28;20287;-73
2023/05/04 02:18:51;;;;;;;19.33;13.07;;;;;;;-146.07;100.00;70291.31;10363718;28;20329;-74
2023/05/04 02:23:51;;;;;;;19.88;11.90;;;;;;;-146.07;100.00;70291.31;10371923;28;20287;-73
2023/05/04 02:28:52;;;;;;;18.23;12.27;;;;;;;-146.07;100.00;70291.31;10367176;28;20032;-73
2023/05/04 02:33:52;;;;;;;21.43;12.23;;;;;;;-146.07;100.00;70291.31;10356201;28;20024;-73
2023/05/04 02:38:59;;;;;;;21.67;12.35;;;;;;;-146.07;100.00;70291.31;10364460;28;20288;-73
2023/05/04 02:43:59;;;;;;;29.75;13.82;;;;;;;-146.07;100.00;70291.31;10373475;28;20038;-73
2023/05/04 02:49:00;;;;;;;19.67;12.77;;;;;;;-146.07;100.00;70291.31;10374451;28;20040;-73
2023/05/04 02:54:00;;;;;;;22.08;11.98;;;;;;;-146.07;100.00;70291.31;10374627;28;20290;-73
2023/05/04 02:59:00;;;;;;;17.52;12.00;;;;;;;-146.07;100.00;70291.31;10374150;28;20475;-73
2023/05/04 03:04:01;;;;;;;19.85;11.77;;;;;;;-146.07;100.00;70291.31;10374360;28;20047;-73
2023/05/04 03:09:03;;;;;;;17.63;10.45;;;;;;;-146.07;100.00;70291.31;10374399;28;20362;-73
2023/05/04 03:14:03;;;;;;;17.33;8.95;;;;;;;-146.07;100.00;70291.31;10373670;28;20457;-73
2023/05/04 03:19:04;;;;;;;25.40;12.02;;;;;;;-146.07;100.00;70291.31;10373718;28;20037;-73
2023/05/04 03:24:04;;;;;;;16.03;10.43;;;;;;;-146.07;100.00;70291.31;10373689;28;20061;-73
2023/05/04 03:29:05;;;;;;;16.20;9.35;;;;;;;-146.07;100.00;70291.31;10372197;28;20284;-73
2023/05/04 03:34:05;;;;;;;16.92;10.13;;;;;;;-146.07;100.00;70291.31;10373501;28;20064;-73
2023/05/04 03:39:06;;;;;;;20.02;10.25;;;;;;;-146.07;100.00;70291.31;10376390;28;20122;-73
2023/05/04 03:44:07;;;;;;;20.00;11.40;;;;;;;-146.07;100.00;70291.31;10404917;28;20780;-73
2023/05/04 03:49:10;;;;;;;20.20;12.57;;;;;;;-146.07;100.00;70291.31;10376931;28;20782;-73
2023/05/04 03:54:11;;;;;;;19.65;12.45;;;;;;;-146.07;100.00;70291.31;10363122;28;20028;-73
2023/05/04 03:59:12;;;;;;;22.83;12.75;;;;;;;-146.07;100.00;70291.31;10362074;28;20052;-73
2023/05/04 04:04:12;;;;;;;17.95;12.15;;;;;;;-146.07;100.00;70291.31;10370691;28;20044;-73
2023/05/04 04:09:12;;;;;;;24.17;12.85;;;;;;;-146.07;100.00;70291.31;10374541;28;20033;-73
2023/05/04 04:14:13;;;;;;;20.73;12.40;;;;;;;-146.07;100.00;70291.31;10368371;28;20036;-73
2023/05/04 04:19:13;;;;;;;21.63;12.10;;;;;;;-146.07;100.00;70291.31;10379943;28;20730;-74
2023/05/04 04:24:14;;;;;;;24.93;13.43;;;;;;;-146.07;100.00;70291.31;10376106;28;20279;-73
2023/05/04 04:29:14;;;;;;;18.75;11.63;;;;;;;-146.07;100.00;70291.31;10365130;28;20761;-73
2023/05/04 04:34:15;;;;;;;20.35;12.35;;;;;;;-146.07;100.00;70291.31;10351806;28;20043;-74
2023/05/04 04:39:15;;;;;;;17.70;11.35;;;;;;;-146.07;100.00;70291.31;10359485;28;20081;-74
2023/05/04 04:44:16;;;;;;;19.67;11.88;;;;;;;-146.07;100.00;70291.31;10417264;28;20033;-74
2023/05/04 04:49:16;;;;;;;20.27;12.70;;;;;;;-146.07;100.00;70291.31;10397166;28;20039;-69
2023/05/04 04:54:17;;;;;;;17.92;11.27;;;;;;;-146.07;100.00;70291.31;10389489;28;20423;-76
2023/05/04 04:59:17;;;;;;;18.65;10.23;;;;;;;-146.07;100.00;70291.31;10384264;28;20036;-77
2023/05/04 05:04:18;;;;;;;19.23;12.27;;;;;;;-146.07;100.00;70291.31;10379239;28;20021;-76
2023/05/04 05:09:19;;;;;;;19.52;12.38;;;;;;;-146.07;100.00;70291.31;10376144;28;20025;-76
2023/05/04 05:14:19;;;;;;;21.02;12.30;;;;;;;-146.07;100.00;70291.31;10373657;28;20055;-76
2023/05/04 05:19:19;;;;;;;21.40;11.57;;;;;;;-146.07;100.00;70291.31;10385856;28;20167;-76
2023/05/04 05:24:20;;;;;;;20.53;11.50;;;;;;;-146.07;100.00;70291.31;10384120;28;20166;-78
2023/05/04 05:29:21;;;;;;;20.77;11.82;;;;;;;-146.07;100.00;70291.31;10385760;28;20290;-71
2023/05/04 05:34:21;;;;;;;23.80;11.13;;;;;;;-146.07;100.00;70291.31;10383692;28;20046;-72
2023/05/04 05:39:22;;;;;;;20.13;11.13;;;;;;;-146.07;100.00;70291.31;10386539;28;20053;-72
2023/05/04 05:44:23;;;;;;;20.00;10.32;;;;;;;-146.07;100.00;70291.31;10382689;28;20032;-73
2023/05/04 05:49:26;;;;;;;21.02;11.02;;;;;;;-146.07;100.00;70291.31;10381578;28;20489;-72
2023/05/04 05:54:29;;;;;;;18.23;9.00;;;;;;;-146.07;100.00;70291.31;10381823;28;20725;-73
2023/05/04 05:59:33;;;;;;;16.73;9.02;;;;;;;-146.07;100.00;70291.31;10383255;28;20024;-72
2023/05/04 06:04:34;;;;;;;14.93;7.90;;;;;;;-146.07;100.00;70291.31;10362378;28;20032;-73
2023/05/04 06:09:35;;;;;;;16.20;8.52;;;;;;;-146.07;100.00;70291.31;10384234;28;20654;-74
2023/05/04 06:14:35;;;;;;;16.08;9.00;;;;;;;-146.07;100.00;70291.31;10376372;28;20356;-75
2023/05/04 06:19:37;;;;;;;13.85;7.13;;;;;;;-146.07;100.00;70291.31;10381510;28;20035;-74
2023/05/04 06:24:37;;;;;;;11.32;7.93;;;;;;;-146.07;100.00;70291.31;10372234;28;20114;-74
2023/05/04 06:29:39;;;;;;;15.25;8.38;;;;;;;-146.07;100.00;70291.31;10386970;28;20024;-74
2023/05/04 06:34:39;;;;;;;14.75;6.97;;;;;;;-146.07;100.00;70291.31;10374050;28;20320;-74
2023/05/04 06:39:40;;;;;;;7.93;6.15;;;;;;;-146.07;100.00;70291.31;10384374;28;20499;-73
2023/05/04 06:44:40;;;;;;;18.47;6.37;;;;;;;-146.07;100.00;70291.31;10375710;28;20028;-75
2023/05/04 06:49:41;;;;;;;11.70;5.72;;;;;;;-146.07;100.00;70291.31;10383880;28;20288;-73
2023/05/04 06:54:41;;;;;;;9.93;6.70;;;;;;;-146.07;100.00;70291.31;10387219;28;20124;-74
2023/05/04 06:59:42;;;;;;;9.52;5.82;;;;;;;-146.07;100.00;70291.31;10379961;28;20314;-72
2023/05/04 07:04:42;;;;;;;15.18;6.70;;;;;;;-146.07;100.00;70291.31;10389590;28;20506;-73
2023/05/04 07:09:45;;;;;;;12.10;7.53;;;;;;;-146.07;100.00;70291.31;10370817;28;20417;-77
2023/05/04 07:14:46;;;;;;;18.88;8.45;;;;;;;-146.07;100.00;70291.31;10389540;28;20495;-73
2023/05/04 07:19:51;;;;;;;14.57;7.18;;;;;;;-146.07;100.00;70291.31;10382923;28;20381;-73
2023/05/04 07:24:51;;;;;;;13.02;7.63;;;;;;;-146.07;100.00;70291.31;10389477;28;20116;-76
2023/05/04 07:29:52;;;;;;;12.05;6.68;;;;;;;-146.07;100.00;70291.31;10383768;28;20519;-74
2023/05/04 07:34:52;;;;;;;14.45;8.07;;;;;;;-146.07;100.00;70291.31;10391608;28;20487;-72
2023/05/04 07:39:52;;;;;;;13.13;7.35;;;;;;;-146.07;100.00;70291.31;10388744;28;20115;-72
2023/05/04 07:44:53;;;;;;;11.40;8.02;;;;;;;-146.07;100.00;70291.31;10390897;28;20025;-73
2023/05/04 07:49:54;;;;;;;17.67;8.63;;;;;;;-146.07;100.00;70291.31;10389899;28;20079;-73
2023/05/04 07:54:54;;;;;;;16.98;8.68;;;;;;;-146.07;100.00;70291.31;10378870;28;20962;-73
2023/05/04 07:59:55;;;;;;;17.13;10.45;;;;;;;-146.07;100.00;70291.31;10389508;28;20175;-74
2023/05/04 08:04:55;;;;;;;18.23;9.63;;;;;;;-146.07;100.00;70291.31;10385949;28;20036;-74
2023/05/04 08:09:56;;;;;;;14.68;9.02;;;;;;;-146.07;100.00;70291.31;10392294;28;20081;-74
2023/05/04 08:14:57;;;;;;;17.30;8.93;;;;;;;-146.07;100.00;70291.31;10385400;28;20571;-73
2023/05/04 08:19:58;;;;;;;14.48;9.30;;;;;;;-146.07;100.00;70291.31;10379848;28;20022;-73
2023/05/04 08:24:58;;;;;;;18.42;9.73;;;;;;;-146.07;100.00;70291.31;10383801;28;20096;-72
2023/05/04 08:29:59;;;;;;;13.38;7.97;;;;;;;-146.07;100.00;70291.31;10375310;28;20591;-73
2023/05/04 08:34:59;;;;;;;16.85;8.88;;;;;;;-146.07;100.00;70291.31;10389162;28;20025;-73
2023/05/04 08:40:00;;;;;;;16.33;8.57;;;;;;;-146.07;100.00;70291.31;10390408;28;20511;-74
2023/05/04 08:45:09;;;;;;;16.35;9.05;;;;;;;-146.07;100.00;70291.31;10388105;28;20029;-73
2023/05/04 08:50:10;;;;;;;10.63;7.35;;;;;;;-146.07;100.00;70291.31;10387738;28;20033;-74
2023/05/04 08:55:11;;;;;;;15.98;8.05;;;;;;;-146.07;100.00;70291.31;10368049;28;20025;-72
2023/05/04 09:00:15;;;;;;;11.45;7.10;;;;;;;-146.07;100.00;70291.31;10367157;28;20055;-74
2023/05/04 09:05:17;;;;;;;15.43;6.93;;;;;;;-146.07;100.00;70291.31;10401175;28;20515;-74
2023/05/04 09:10:18;;;;;;;12.45;7.25;;;;;;;-146.07;100.00;70291.31;10387404;28;20034;-74
2023/05/04 09:15:19;;;;;;;13.88;7.45;;;;;;;-146.07;100.00;70291.31;10353710;28;20024;-74
2023/05/04 09:20:20;;;;;;;12.40;7.22;;;;;;;-146.07;100.00;70291.31;10331535;28;20132;-74
2023/05/04 09:25:21;;;;;;;14.05;8.77;;;;;;;-146.07;100.00;70291.31;10351060;28;20040;-74
2023/05/04 09:30:21;;;;;;;15.40;9.75;;;;;;;-146.07;100.00;70291.31;10346987;28;20040;-73
2023/05/04 09:35:29;;;;;;;16.42;10.18;;;;;;;-146.07;100.00;70291.31;10336713;28;20032;-75
2023/05/04 09:40:31;;;;;;;18.67;10.60;;;;;;;-146.07;100.00;70291.31;10368555;28;20057;-75
2023/05/04 09:45:42;;;;;;;20.58;11.57;;;;;;;-146.07;100.00;70291.31;10377313;28;20082;-73
2023/05/04 09:50:48;;;;;;;20.15;11.05;;;;;;;-146.07;100.00;70291.31;10379702;28;20423;-74
2023/05/04 09:56:13;;;;;;;21.90;11.73;;;;;;;-146.07;100.00;70291.31;10389762;28;20898;-74
2023/05/04 10:01:14;;;;;;;22.05;11.43;;;;;;;-146.07;100.00;70291.31;10376602;28;20045;-73
2023/05/04 10:06:16;;;;;;;23.75;11.68;;;;;;;-146.07;100.00;70291.31;10369200;28;20038;-74
2023/05/04 10:11:18;;;;;;;16.85;10.65;;;;;;;-146.07;100.00;70291.31;10385657;28;20179;-74
2023/05/04 10:16:45;;;;;;;18.13;9.57;;;;;;;-146.07;100.00;70291.31;10381034;28;20028;-75
2023/05/04 10:22:10;;;;;;;18.92;10.45;;;;;;;-146.07;100.00;70291.31;10381182;28;20029;-73
2023/05/04 10:27:12;;;;;;;14.27;8.77;;;;;;;-146.07;100.00;70291.31;10385751;28;20629;-76
2023/05/04 10:32:17;;;;;;;23.52;9.55;;;;;;;-146.07;100.00;70291.31;10383985;28;20037;-74
2023/05/04 10:37:21;;;;;;;21.17;10.35;;;;;;;-146.07;100.00;70291.31;10358813;28;20063;-72
2023/05/04 10:42:21;;;;;;;17.58;10.05;;;;;;;-146.07;100.00;70291.31;10379835;28;20037;-74
2023/05/04 10:47:31;;;;;;;21.00;12.25;;;;;;;-146.07;100.00;70291.31;10381838;28;20021;-73
2023/05/04 10:52:44;;;;;;;19.05;10.15;;;;;;;-146.07;100.00;70291.31;10384639;28;20116;-74
2023/05/04 10:57:55;;;;;;;16.48;9.65;;;;;;;-146.07;100.00;70291.31;10377314;28;20025;-73
2023/05/04 11:03:02;;;;;;;29.45;13.68;;;;;;;-146.07;100.00;70291.31;10365478;28;20040;-72
2023/05/04 11:08:14;;;;;;;19.60;10.90;;;;;;;-146.07;100.00;70291.31;10360287;28;20177;-73
2023/05/04 11:13:15;;;;;;;25.15;12.32;;;;;;;-146.07;100.00;70291.31;10365074;28;20025;-72
2023/05/04 11:18:32;;;;;;;23.33;13.45;;;;;;;-146.07;100.00;70291.31;10366257;28;20033;-74
2023/05/04 11:23:33;;;;;;;25.50;12.00;;;;;;;-146.07;100.00;70291.31;10347068;28;20108;-73
2023/05/04 11:28:36;;;;;;;21.63;12.68;;;;;;;-146.07;100.00;70291.31;10337375;28;20076;-74
2023/05/04 11:33:36;;;;;;;18.88;11.77;;;;;;;-146.07;100.00;70291.31;10341609;28;20527;-73
2023/05/04 11:38:37;;;;;;;27.10;13.95;;;;;;;-146.07;100.00;70291.31;10336269;28;20173;-73
2023/05/04 11:43:41;;;;;;;17.95;11.30;;;;;;;-146.07;100.00;70291.31;10373210;28;20041;-74
2023/05/04 11:48:41;;;;;;;16.88;10.50;;;;;;;-146.07;100.00;70291.31;10376457;28;20021;-73
2023/05/04 11:53:42;;;;;;;25.48;10.88;;;;;;;-146.07;100.00;70291.31;10376836;28;20490;-75
2023/05/04 11:58:42;;;;;;;18.35;11.25;;;;;;;-146.07;100.00;70291.31;10372073;28;20059;-72
2023/05/04 12:03:44;;;;;;;20.52;11.85;;;;;;;-146.07;100.00;70291.31;10384199;28;20032;-72
2023/05/04 12:08:45;;;;;;;20.50;12.82;;;;;;;-146.07;100.00;70291.31;10380389;28;20060;-72
2023/05/04 12:13:46;;;;;;;29.13;14.27;;;;;;;-146.07;100.00;70291.31;10377451;28;20441;-73
2023/05/04 12:18:47;;;;;;;22.45;12.65;;;;;;;-146.07;100.00;70291.31;10387984;28;20037;-74
2023/05/04 12:23:47;;;;;;;23.27;12.60;;;;;;;-146.07;100.00;70291.31;10391277;28;20462;-73
2023/05/04 12:28:48;;;;;;;22.42;12.70;;;;;;;-146.07;100.00;70291.31;10386825;28;20431;-72
2023/05/04 12:33:49;;;;;;;27.30;14.13;;;;;;;-146.07;100.00;70291.31;10370519;28;20033;-72
2023/05/04 12:38:50;;;;;;;25.73;13.02;;;;;;;-146.07;100.00;70291.31;10381181;28;20049;-73
2023/05/04 12:43:50;;;;;;;25.70;14.40;;;;;;;-146.07;100.00;70291.31;10386578;28;20049;-73
2023/05/04 12:48:51;;;;;;;23.15;12.93;;;;;;;-146.07;100.00;70291.31;10358509;28;20034;-73
2023/05/04 12:53:51;;;;;;;27.10;14.55;;;;;;;-146.07;100.00;70291.31;10346412;28;20037;-73
2023/05/04 12:58:52;;;;;;;28.63;12.98;;;;;;;-146.07;100.00;70291.31;10345632;28;20041;-73
2023/05/04 13:03:53;;;;;;;24.45;12.27;;;;;;;-146.07;100.00;70291.31;10343360;28;20037;-75
2023/05/04 13:08:53;;;;;;;28.25;13.90;;;;;;;-146.07;100.00;70291.31;10344276;28;20604;-75
2023/05/04 13:13:55;;;;;;;20.50;12.07;;;;;;;-146.07;100.00;70291.31;10345196;28;20017;-74
2023/05/04 13:18:58;;;;;;;24.73;13.55;;;;;;;-146.07;100.00;70291.31;10344047;28;20451;-73
2023/05/04 13:24:00;;;;;;;28.67;12.65;;;;;;;-146.07;100.00;70291.31;10344728;28;20032;-73
2023/05/04 13:29:02;;;;;;;23.17;12.70;;;;;;;-146.07;100.00;70291.31;10334424;28;20056;-73
2023/05/04 13:34:02;;;;;;;28.25;13.38;;;;;;;-146.07;100.00;70291.31;10327943;28;20116;-73
2023/05/04 13:39:03;;;;;;;13.63;8.18;;;;;;;-146.07;100.00;70291.31;10334819;28;20499;-72
2023/05/04 13:44:03;;;;;;;12.32;7.30;;;;;;;-146.07;100.00;70291.31;10384868;28;20033;-73
2023/05/04 13:49:04;;;;;;;13.57;7.05;;;;;;;-146.07;100.00;70291.31;10370988;28;20029;-72
2023/05/04 13:54:04;;;;;;;13.98;7.05;;;;;;;-146.07;100.00;70291.31;10391619;28;20013;-73
2023/05/04 13:59:05;;;;;;;13.65;6.57;;;;;;;-146.07;100.00;70291.31;10367993;28;20036;-73
2023/05/04 14:04:06;;;;;;;11.35;6.55;;;;;;;-146.07;100.00;70291.31;10373716;28;20782;-72
2023/05/04 14:09:07;;;;;;;15.00;9.40;;;;;;;-146.07;100.00;70291.31;10384672;28;20021;-72
2023/05/04 14:14:08;;;;;;;11.88;5.82;;;;;;;-146.07;100.00;70291.31;10380630;28;20523;-74
2023/05/04 14:19:08;;;;;;;13.65;7.13;;;;;;;-146.07;100.00;70291.31;10380256;28;20649;-74
2023/05/04 14:24:09;;;;;;;11.88;6.43;;;;;;;-146.07;100.00;70291.31;10378222;28;20075;-74
2023/05/04 14:29:10;;;;;;;11.32;5.63;;;;;;;-146.07;100.00;70291.31;10359536;28;20968;-75
2023/05/04 14:34:11;;;;;;;10.40;6.65;;;;;;;-146.07;100.00;70291.31;10383062;28;20052;-73
2023/05/04 14:39:11;;;;;;;13.57;6.40;;;;;;;-146.07;100.00;70291.31;10385615;28;20436;-73
2023/05/04 14:44:12;;;;;;;12.98;7.70;;;;;;;-146.07;100.00;70291.31;10379931;28;20040;-73
2023/05/04 14:49:12;;;;;;;10.40;5.97;;;;;;;-146.07;100.00;70291.31;10378061;28;20036;-73
2023/05/04 14:54:13;;;;;;;9.82;6.18;;;;;;;-146.07;100.00;70291.31;10362763;28;20095;-73
2023/05/04 14:59:13;;;;;;;20.10;6.90;;;;;;;-146.07;100.00;70291.31;10391038;28;20442;-72
2023/05/04 15:04:15;;;;;;;10.48;5.95;;;;;;;-146.07;100.00;70291.31;10365697;28;20175;-73
2023/05/04 15:09:16;;;;;;;7.50;4.95;;;;;;;-146.07;100.00;70291.31;10368853;28;20525;-75
2023/05/04 15:14:16;;;;;;;10.90;4.95;;;;;;;-146.07;100.00;70291.31;10383232;28;20462;-76
2023/05/04 15:19:17;;;;;;;8.30;4.60;;;;;;;-146.07;100.00;70291.31;10374981;28;20026;-74
2023/05/04 15:24:17;;;;;;;5.68;3.72;;;;;;;-146.07;100.00;70291.31;10386766;28;20086;-74
2023/05/04 15:29:18;;;;;;;11.30;4.13;;;;;;;-146.07;100.00;70291.31;10385120;28;20021;-75
2023/05/04 15:34:21;;;;;;;8.32;3.15;;;;;;;-146.07;100.00;70291.31;10386150;28;20027;-78
2023/05/04 15:39:22;;;;;;;6.10;3.35;;;;;;;-146.07;100.00;70291.31;10389642;28;20341;-75
2023/05/04 15:44:23;;;;;;;5.75;3.53;;;;;;;-146.07;100.00;70291.31;10381671;28;20525;-75
2023/05/04 15:49:23;;;;;;;7.80;4.18;;;;;;;-146.07;100.00;70291.31;10346561;28;20031;-73
2023/05/04 15:54:24;;;;;;;6.78;3.97;;;;;;;-146.07;100.00;70291.31;10352315;28;20029;-78
2023/05/04 15:59:24;;;;;;;6.63;3.75;;;;;;;-146.07;100.00;70291.31;10350804;28;20084;-76
2023/05/04 16:04:25;;;;;;;13.23;4.60;;;;;;;-146.07;100.00;70291.31;10352010;28;20033;-75
2023/05/04 16:09:26;;;;;;;6.57;3.42;;;;;;;-146.07;100.00;70291.31;10352323;28;22000;-75
2023/05/04 16:14:27;;;;;;;6.63;3.53;;;;;;;-146.07;100.00;70291.31;10353734;28;20060;-74
2023/05/04 16:19:27;;;;;;;10.25;3.92;;;;;;;-146.07;100.00;70291.31;10350750;28;20488;-76
2023/05/04 16:24:28;;;;;;;9.50;3.53;;;;;;;-146.07;100.00;70291.31;10347514;28;20052;-74
2023/05/04 16:29:28;;;;;;;8.33;4.57;;;;;;;-146.07;100.00;70291.31;10352558;28;20025;-76
2023/05/04 16:34:29;;;;;;;7.00;3.70;;;;;;;-146.07;100.00;70291.31;10339939;28;20280;-74
2023/05/04 16:39:33;;;;;;;4.28;3.10;;;;;;;-146.07;100.00;70291.31;10352645;28;20817;-78
2023/05/04 16:44:36;;;;;;;9.60;3.67;;;;;;;-146.07;100.00;70291.31;10386573;28;20033;-75
2023/05/04 16:49:37;;;;;;;4.47;3.05;;;;;;;-146.07;100.00;70291.31;10367641;28;20021;-75
2023/05/04 16:54:37;;;;;;;12.40;4.25;;;;;;;-146.07;100.00;70291.31;10390354;28;20052;-77
2023/05/04 16:59:38;;;;;;;12.88;4.80;;;;;;;-146.07;100.00;70291.31;10388384;28;20374;-77
2023/05/04 17:04:39;;;;;;;5.43;3.78;;;;;;;-146.07;100.00;70291.31;10383727;28;20037;-77
2023/05/04 17:10:13;;;;;;;;;;;;;;;;;;;;;
2023/05/04 17:15:14;;;;;;;14.15;4.40;;;;;;;-146.07;100.00;70291.31;10383242;28;20040;-70
2023/05/04 17:20:15;;;;;;;11.68;6.25;;;;;;;-146.07;100.00;70291.31;10384829;28;20036;-71
2023/05/04 17:25:20;;;;;;;5.80;3.97;;;;;;;-146.07;100.00;70291.31;10369880;28;20048;-75
2023/05/04 17:30:29;;;;;;;5.15;3.25;;;;;;;-146.07;100.00;70291.31;10391485;28;20503;-74
2023/05/04 17:35:30;;;;;;;10.05;3.67;;;;;;;-146.07;100.00;70291.31;10370027;28;20064;-74
2023/05/04 17:40:31;;;;;;;4.97;2.85;;;;;;;-146.07;100.00;70291.31;10378658;28;20051;-73
2023/05/04 17:45:32;;;;;;;4.93;2.83;;;;;;;-146.07;100.00;70291.31;10377489;28;20033;-71
2023/05/04 17:50:32;;;;;;;6.10;3.10;;;;;;;-146.07;100.00;70291.31;10385988;28;20032;-76
2023/05/04 17:55:32;;;;;;;9.57;3.20;;;;;;;-146.07;100.00;70291.31;10386715;28;20021;-75
2023/05/04 18:00:33;;;;;;;5.83;3.47;;;;;;;-146.07;100.00;70291.31;10381505;28;20072;-73
2023/05/04 18:05:33;;;;;;;8.63;3.10;;;;;;;-146.07;100.00;70291.31;10383732;28;20634;-76
2023/05/04 18:10:36;;;;;;;5.97;3.78;;;;;;;-146.07;100.00;70291.31;10377113;28;20025;-73
2023/05/04 18:15:36;;;;;;;8.13;3.55;;;;;;;-146.07;100.00;70291.31;10389022;28;20142;-76
2023/05/04 18:20:37;;;;;;;4.72;2.80;;;;;;;-146.07;100.00;70291.31;10380481;28;20049;-75
2023/05/04 18:25:37;;;;;;;5.32;2.38;;;;;;;-146.07;100.00;70291.31;10388827;28;20029;-74
2023/05/04 18:30:38;;;;;;;5.68;2.88;;;;;;;-146.07;100.00;70291.31;10384132;28;20458;-73
2023/05/04 18:35:38;;;;;;;4.35;2.85;;;;;;;-146.07;100.00;70291.31;10388866;28;20115;-75
2023/05/04 18:40:39;;;;;;;3.45;2.67;;;;;;;-146.07;100.00;70291.31;10381893;28;20087;-73
2023/05/04 18:45:39;;;;;;;5.35;3.00;;;;;;;-146.07;100.00;70291.31;10375218;28;20096;-75
2023/05/04 18:50:41;;;;;;;6.50;3.72;;;;;;;-146.07;100.00;70291.31;10364828;28;20361;-74
2023/05/04 18:55:41;;;;;;;6.25;3.78;;;;;;;-146.07;100.00;70291.31;10385291;28;20025;-81
2023/05/04 19:00:45;;;;;;;10.02;4.22;;;;;;;-146.07;100.00;70291.31;10381290;28;20074;-73
2023/05/04 19:05:45;;;;;;;8.40;4.15;;;;;;;-146.07;100.00;70291.31;10375648;28;20411;-86
2023/05/04 19:10:47;;;;;;;10.00;7.05;;;;;;;-146.07;100.00;70291.31;10376833;28;20022;-76
2023/05/04 19:15:47;;;;;;;13.55;5.28;;;;;;;-146.07;100.00;70291.31;10366423;28;20032;-75
2023/05/04 19:20:48;;;;;;;14.83;5.87;;;;;;;-146.07;100.00;70291.31;10379499;28;20032;-77
2023/05/04 19:25:49;;;;;;;9.82;5.88;;;;;;;-146.07;100.00;70291.31;10382381;28;20283;-73
2023/05/04 19:30:51;;;;;;;11.30;6.10;;;;;;;-146.07;100.00;70291.31;10383566;28;20103;-76
2023/05/04 19:35:52;;;;;;;9.95;6.50;;;;;;;-146.07;100.00;70291.31;10381600;28;20523;-76
2023/05/04 19:40:53;;;;;;;17.80;7.85;;;;;;;-146.07;100.00;70291.31;10382787;28;20416;-77
2023/05/04 19:45:53;;;;;;;13.68;7.80;;;;;;;-146.07;100.00;70291.31;10363786;28;20634;-78
2023/05/04 19:50:54;;;;;;;13.32;8.43;;;;;;;-146.07;100.00;70291.31;10360728;28;20021;-77
2023/05/04 19:55:55;;;;;;;17.67;9.18;;;;;;;-146.07;100.00;70291.31;10355054;28;20025;-77
2023/05/04 20:00:55;;;;;;;15.40;9.00;;;;;;;-146.07;100.00;70291.31;10366988;28;20025;-78
2023/05/04 20:05:58;;;;;;;22.30;12.15;;;;;;;-146.07;100.00;70291.31;10361781;28;20028;-78
2023/05/04 20:10:58;;;;;;;18.00;10.52;;;;;;;-146.07;100.00;70291.31;10354436;28;20496;-78
2023/05/04 20:16:00;;;;;;;20.55;9.38;;;;;;;-146.07;100.00;70291.31;10356161;28;20026;-78
2023/05/04 20:21:02;;;;;;;18.77;9.57;;;;;;;-146.07;100.00;70291.31;10376147;28;20029;-77
2023/05/04 20:26:03;;;;;;;16.42;9.20;;;;;;;-146.07;100.00;70291.31;10370524;28;20067;-77
2023/05/04 20:31:03;;;;;;;16.92;9.38;;;;;;;-146.07;100.00;70291.31;10367787;28;20389;-77
2023/05/04 20:36:05;;;;;;;19.65;10.30;;;;;;;-146.07;100.00;70291.31;10351884;28;20187;-77
2023/05/04 20:41:07;;;;;;;17.70;9.55;;;;;;;-146.07;100.00;70291.31;10380781;28;20131;-78
2023/05/04 20:46:07;;;;;;;18.02;8.80;;;;;;;-146.07;100.00;70291.31;10389308;28;20030;-78
2023/05/04 20:51:08;;;;;;;17.70;9.70;;;;;;;-146.07;100.00;70291.31;10391043;28;20028;-77
2023/05/04 20:56:09;;;;;;;15.60;9.45;;;;;;;-146.07;100.00;70291.31;10400270;28;20467;-78
2023/05/04 21:01:09;;;;;;;20.90;9.60;;;;;;;-146.07;100.00;70291.31;10396651;28;20029;-76
2023/05/04 21:06:11;;;;;;;16.63;9.05;;;;;;;-146.07;100.00;70291.31;10386681;28;20022;-77
2023/05/04 21:11:11;;;;;;;17.77;9.57;;;;;;;-146.07;100.00;70291.31;10397360;28;20028;-77
2023/05/04 21:16:12;;;;;;;13.83;8.30;;;;;;;-146.07;100.00;70291.31;10392396;28;20028;-78
2023/05/04 21:21:13;;;;;;;16.73;8.85;;;;;;;-146.07;100.00;70291.31;10396852;28;20311;-79
2023/05/04 21:26:13;;;;;;;15.00;8.73;;;;;;;-146.07;100.00;70291.31;10390458;28;20593;-76
2023/05/04 21:31:14;;;;;;;14.88;8.30;;;;;;;-146.07;100.00;70291.31;10390664;28;20024;-75
2023/05/04 21:36:15;;;;;;;13.02;8.40;;;;;;;-146.07;100.00;70291.31;10393962;28;20463;-75
2023/05/04 21:41:15;;;;;;;13.27;7.03;;;;;;;-146.07;100.00;70291.31;10395096;28;20041;-75
2023/05/04 21:46:15;;;;;;;14.23;7.72;;;;;;;-146.07;100.00;70291.31;10389348;28;20025;-76
2023/05/04 21:51:16;;;;;;;14.48;7.88;;;;;;;-146.07;100.00;70291.31;10383923;28;20254;-78
2023/05/04 21:56:16;;;;;;;13.85;8.27;;;;;;;-146.07;100.00;70291.31;10388218;28;20428;-76
2023/05/04 22:01:17;;;;;;;11.82;7.35;;;;;;;-146.07;100.00;70291.31;10387684;28;20044;-75
2023/05/04 22:06:20;;;;;;;10.65;6.70;;;;;;;-146.07;100.00;70291.31;10388852;28;20472;-76
2023/05/04 22:11:21;;;;;;;11.52;6.65;;;;;;;-146.07;100.00;70291.31;10385142;28;20099;-77
2023/05/04 22:16:21;;;;;;;17.83;7.93;;;;;;;-146.07;100.00;70291.31;10382510;28;20029;-78
2023/05/04 22:21:22;;;;;;;13.77;7.40;;;;;;;-146.07;100.00;70291.31;10382708;28;20027;-75